Time;durP1;ratioP1;P1;durP2;ratioP2;P2;SDS_P1;SDS_P2;PMS_P1;PMS_P2;Temp;Humidity;BMP_temperature;BMP_pressure;BME280_temperature;BME280_humidity;BME280_pressure;Samples;Min_cycle;Max_cycle;Signal;HPM_P1;HPM_P2
2022/09/21 00:01:21;;;;;;;7.70;6.47;;;;;;;;;;5034922;28;20036;-73
2022/09/21 00:03:47;;;;;;;6.53;5.90;;;;;;;;;;5035099;28;20108;-73
2022/09/21 00:06:14;;;;;;;5.93;5.32;;;;;;;;;;5033338;28;20040;-72
2022/09/21 00:08:39;;;;;;;7.68;5.60;;;;;;;;;;5034662;28;20136;-72
2022/09/21 00:11:05;;;;;;;6.80;5.75;;;;;;;;;;5033458;28;20120;-74
2022/09/21 00:13:32;;;;;;;6.57;5.72;;;;;;;;;;5033108;28;20060;-74
2022/09/21 00:15:57;;;;;;;5.97;5.38;;;;;;;;;;5034424;28;20079;-74
2022/09/21 00:18:23;;;;;;;5.82;5.22;;;;;;;;;;5034786;28;20021;-74
2022/09/21 00:20:49;;;;;;;6.63;4.72;;;;;;;;;;5033184;28;20048;-75
2022/09/21 00:23:14;;;;;;;5.25;4.57;;;;;;;;;;5032873;28;20075;-75
2022/09/21 00:25:40;;;;;;;4.88;4.40;;;;;;;;;;5034643;28;20033;-75
2022/09/21 00:28:05;;;;;;;5.00;4.32;;;;;;;;;;5034300;28;20057;-75
2022/09/21 00:30:30;;;;;;;7.38;5.60;;;;;;;;;;5034745;28;20025;-75
2022/09/21 00:32:56;;;;;;;5.07;4.60;;;;;;;;;;5033091;28;20389;-75
2022/09/21 00:35:21;;;;;;;8.63;4.70;;;;;;;;;;5033981;28;20473;-72
2022/09/21 00:37:47;;;;;;;6.57;4.90;;;;;;;;;;5034459;28;20436;-72
2022/09/21 00:40:12;;;;;;;8.68;6.25;;;;;;;;;;5034484;28;20071;-72
2022/09/21 00:42:38;;;;;;;8.15;7.15;;;;;;;;;;5034273;28;20017;-72
2022/09/21 00:45:04;;;;;;;15.77;10.18;;;;;;;;;;5032791;28;20485;-74
2022/09/21 00:47:32;;;;;;;18.08;11.60;;;;;;;;;;5034088;28;20071;-75
2022/09/21 00:49:59;;;;;;;13.80;8.55;;;;;;;;;;5034437;28;20079;-74
2022/09/21 00:52:25;;;;;;;9.77;6.50;;;;;;;;;;5032626;28;20024;-74
2022/09/21 00:54:53;;;;;;;5.95;5.07;;;;;;;;;;5034001;28;20021;-74
2022/09/21 00:57:20;;;;;;;9.02;5.80;;;;;;;;;;5033878;28;20053;-74
2022/09/21 00:59:47;;;;;;;5.63;4.70;;;;;;;;;;5098439;22;20059;-72
2022/09/21 01:02:14;;;;;;;7.05;5.05;;;;;;;;;;5095946;28;20059;-73
2022/09/21 01:04:39;;;;;;;5.88;5.05;;;;;;;;;;5096493;28;20035;-72
2022/09/21 01:07:08;;;;;;;5.03;4.57;;;;;;;;;;5114432;28;20371;-72
2022/09/21 01:09:34;;;;;;;5.10;4.60;;;;;;;;;;5114147;28;20491;-72
2022/09/21 01:12:06;;;;;;;5.68;4.07;;;;;;;;;;5114461;28;20071;-73
2022/09/21 01:14:39;;;;;;;4.75;4.35;;;;;;;;;;5114332;28;20035;-72
2022/09/21 01:17:22;;;;;;;6.07;5.43;;;;;;;;;;5113899;28;20036;-72
2022/09/21 01:19:52;;;;;;;6.55;5.20;;;;;;;;;;5114054;28;20031;-72
2022/09/21 01:22:25;;;;;;;6.35;5.43;;;;;;;;;;5114237;28;20059;-72
2022/09/21 01:25:01;;;;;;;6.28;5.00;;;;;;;;;;5113921;28;20032;-72
2022/09/21 01:27:45;;;;;;;5.60;4.72;;;;;;;;;;5096217;28;20487;-72
2022/09/21 01:30:12;;;;;;;5.32;4.55;;;;;;;;;;5095861;28;20030;-71
2022/09/21 01:32:43;;;;;;;4.80;4.40;;;;;;;;;;5096208;28;20386;-72
2022/09/21 01:35:08;;;;;;;4.70;4.25;;;;;;;;;;5099951;28;20038;-74
2022/09/21 01:37:33;;;;;;;4.40;3.92;;;;;;;;;;5100144;28;20024;-74
2022/09/21 01:40:01;;;;;;;5.90;4.00;;;;;;;;;;5099580;28;20114;-74
2022/09/21 01:42:27;;;;;;;4.97;4.07;;;;;;;;;;5099809;28;20421;-74
2022/09/21 01:44:54;;;;;;;5.00;4.50;;;;;;;;;;5099929;28;20034;-74
2022/09/21 01:47:21;;;;;;;5.88;4.13;;;;;;;;;;5118516;28;20016;-74
2022/09/21 01:49:50;;;;;;;5.95;4.38;;;;;;;;;;5101942;28;20051;-74
2022/09/21 01:52:18;;;;;;;4.95;4.32;;;;;;;;;;5121649;28;20506;-74
2022/09/21 01:54:52;;;;;;;6.30;4.78;;;;;;;;;;5119941;28;20016;-74
2022/09/21 01:57:18;;;;;;;5.05;4.63;;;;;;;;;;5117809;28;20047;-74
2022/09/21 01:59:54;;;;;;;6.00;4.80;;;;;;;;;;5099056;28;20035;-74
2022/09/21 02:02:25;;;;;;;4.25;3.90;;;;;;;;;;5118145;28;20084;-75
2022/09/21 02:04:50;;;;;;;;;;;;;;;;;;5100154;28;20020;-75
2022/09/21 02:07:16;;;;;;;4.80;3.97;;;;;;;;;;5118108;28;20044;-72
2022/09/21 02:09:42;;;;;;;4.68;4.28;;;;;;;;;;5117653;28;20038;-73
2022/09/21 02:12:08;;;;;;;4.57;4.20;;;;;;;;;;5082248;28;20023;-73
2022/09/21 02:14:35;;;;;;;5.25;4.47;;;;;;;;;;5117975;28;20024;-72
2022/09/21 02:17:01;;;;;;;5.38;4.35;;;;;;;;;;5117538;28;20034;-73
2022/09/21 02:19:33;;;;;;;5.00;4.32;;;;;;;;;;5099579;28;20024;-72
2022/09/21 02:22:08;;;;;;;4.70;4.30;;;;;;;;;;5099448;28;20048;-72
2022/09/21 02:24:40;;;;;;;4.85;4.38;;;;;;;;;;5117299;28;20028;-73
2022/09/21 02:27:12;;;;;;;4.70;4.30;;;;;;;;;;5117632;28;20031;-73
2022/09/21 02:29:46;;;;;;;5.15;4.00;;;;;;;;;;5117441;28;20046;-72
2022/09/21 02:32:16;;;;;;;4.80;4.20;;;;;;;;;;5116953;28;20038;-72
2022/09/21 02:34:48;;;;;;;5.93;4.03;;;;;;;;;;5117544;28;20046;-72
2022/09/21 02:37:25;;;;;;;5.95;4.82;;;;;;;;;;5116727;28;20024;-73
2022/09/21 02:39:51;;;;;;;4.72;4.30;;;;;;;;;;5116791;28;20055;-72
2022/09/21 02:42:20;;;;;;;4.50;4.10;;;;;;;;;;5116730;28;20054;-72
2022/09/21 02:44:55;;;;;;;4.10;3.90;;;;;;;;;;5098067;28;20024;-72
2022/09/21 02:47:24;;;;;;;4.97;4.57;;;;;;;;;;5098955;28;20040;-72
2022/09/21 02:49:56;;;;;;;5.28;4.85;;;;;;;;;;5117144;28;20030;-72
2022/09/21 02:52:22;;;;;;;5.68;4.78;;;;;;;;;;5099028;28;20413;-72
2022/09/21 02:54:49;;;;;;;5.40;5.00;;;;;;;;;;5116755;28;20061;-74
2022/09/21 02:57:16;;;;;;;6.32;5.72;;;;;;;;;;5116984;28;20122;-74
2022/09/21 02:59:42;;;;;;;5.53;5.13;;;;;;;;;;5116246;28;20048;-74
2022/09/21 03:02:10;;;;;;;6.50;4.90;;;;;;;;;;5081446;28;20031;-75
2022/09/21 03:04:35;;;;;;;6.05;5.45;;;;;;;;;;5116676;28;20069;-75
2022/09/21 03:07:01;;;;;;;5.90;5.30;;;;;;;;;;5116360;28;20505;-73
2022/09/21 03:09:26;;;;;;;9.10;6.03;;;;;;;;;;5116770;28;20062;-73
2022/09/21 03:11:52;;;;;;;7.68;6.25;;;;;;;;;;5116678;28;20482;-72
2022/09/21 03:14:18;;;;;;;7.90;6.10;;;;;;;;;;5116524;28;20030;-73
2022/09/21 03:16:44;;;;;;;7.03;6.35;;;;;;;;;;5097951;28;20407;-72
2022/09/21 03:19:11;;;;;;;9.48;6.35;;;;;;;;;;5116160;28;20098;-72
2022/09/21 03:21:36;;;;;;;6.72;6.13;;;;;;;;;;5097582;28;20027;-74
2022/09/21 03:24:02;;;;;;;6.70;6.05;;;;;;;;;;5116088;28;20080;-73
2022/09/21 03:26:28;;;;;;;6.07;5.47;;;;;;;;;;5115713;28;20523;-74
2022/09/21 03:28:53;;;;;;;7.63;5.95;;;;;;;;;;5097991;28;20019;-73
2022/09/21 03:31:19;;;;;;;6.32;5.75;;;;;;;;;;5097554;28;20556;-72
2022/09/21 03:33:45;;;;;;;6.00;5.35;;;;;;;;;;5116281;28;20363;-72
2022/09/21 03:36:11;;;;;;;7.50;6.15;;;;;;;;;;5097146;28;20031;-73
2022/09/21 03:38:36;;;;;;;6.22;5.63;;;;;;;;;;5097743;28;20026;-73
2022/09/21 03:41:03;;;;;;;7.28;5.50;;;;;;;;;;5097506;28;20024;-72
2022/09/21 03:43:29;;;;;;;7.93;5.63;;;;;;;;;;5097772;28;20022;-72
2022/09/21 03:45:54;;;;;;;7.63;6.07;;;;;;;;;;5115913;28;20023;-72
2022/09/21 03:48:21;;;;;;;6.85;6.05;;;;;;;;;;5115724;28;20379;-71
2022/09/21 03:50:46;;;;;;;6.80;5.65;;;;;;;;;;5115521;28;20108;-74
2022/09/21 03:53:12;;;;;;;6.45;5.80;;;;;;;;;;5115732;28;20027;-75
2022/09/21 03:55:37;;;;;;;8.07;5.90;;;;;;;;;;5097231;28;20031;-72
2022/09/21 03:58:03;;;;;;;7.65;5.70;;;;;;;;;;5115614;28;20437;-71
2022/09/21 04:00:28;;;;;;;6.35;5.68;;;;;;;;;;5115542;28;20023;-74
2022/09/21 04:02:54;;;;;;;6.18;5.57;;;;;;;;;;5115396;28;20483;-74
2022/09/21 04:05:19;;;;;;;7.43;5.65;;;;;;;;;;5097566;28;20035;-73
2022/09/21 04:07:45;;;;;;;6.18;5.57;;;;;;;;;;5115014;28;20027;-74
2022/09/21 04:10:12;;;;;;;8.20;5.78;;;;;;;;;;5114611;28;20024;-74
2022/09/21 04:12:38;;;;;;;6.57;5.90;;;;;;;;;;5114529;28;20008;-73
2022/09/21 04:15:06;;;;;;;7.70;6.13;;;;;;;;;;5114061;28;20034;-73
2022/09/21 04:17:32;;;;;;;6.68;5.70;;;;;;;;;;5114708;28;20043;-75
2022/09/21 04:19:58;;;;;;;7.78;6.18;;;;;;;;;;5096313;28;20104;-75
2022/09/21 04:22:23;;;;;;;7.15;5.80;;;;;;;;;;5096209;28;20470;-75
2022/09/21 04:24:49;;;;;;;6.65;5.78;;;;;;;;;;5114320;28;20032;-75
2022/09/21 04:27:14;;;;;;;6.20;5.60;;;;;;;;;;5114305;28;20054;-75
2022/09/21 04:29:40;;;;;;;8.25;6.03;;;;;;;;;;5113561;28;20019;-75
2022/09/21 04:32:06;;;;;;;9.52;6.03;;;;;;;;;;5114128;28;20065;-75
2022/09/21 04:34:31;;;;;;;7.95;6.70;;;;;;;;;;5114135;28;20176;-75
2022/09/21 04:36:57;;;;;;;8.48;6.05;;;;;;;;;;5095991;28;20064;-75
2022/09/21 04:39:23;;;;;;;10.00;6.75;;;;;;;;;;5114073;28;20026;-75
2022/09/21 04:41:49;;;;;;;8.77;6.80;;;;;;;;;;5113378;28;20094;-75
2022/09/21 04:44:14;;;;;;;6.82;6.15;;;;;;;;;;5116271;28;20035;-75
2022/09/21 04:46:40;;;;;;;7.22;6.45;;;;;;;;;;5116263;28;20451;-75
2022/09/21 04:49:05;;;;;;;9.65;7.20;;;;;;;;;;5113932;28;20034;-71
2022/09/21 04:51:31;;;;;;;8.20;7.13;;;;;;;;;;5112929;28;20024;-72
2022/09/21 04:53:56;;;;;;;9.48;7.25;;;;;;;;;;5094163;28;20082;-72
2022/09/21 04:56:22;;;;;;;8.57;7.13;;;;;;;;;;5112672;28;20068;-72
2022/09/21 04:58:47;;;;;;;8.25;7.03;;;;;;;;;;5095343;28;20023;-72
2022/09/21 05:01:12;;;;;;;10.57;7.30;;;;;;;;;;5113564;28;20714;-72
2022/09/21 05:03:38;;;;;;;9.40;8.13;;;;;;;;;;5095472;28;20024;-73
2022/09/21 05:06:04;;;;;;;10.40;7.88;;;;;;;;;;5095774;28;20080;-71
2022/09/21 05:11:14;;;;;;;9.60;7.28;;;;;;;;;;5095208;28;20468;-75
2022/09/21 05:13:40;;;;;;;9.35;7.57;;;;;;;;;;5113307;28;20031;-74
2022/09/21 05:16:05;;;;;;;9.18;7.38;;;;;;;;;;5113222;28;20032;-74
2022/09/21 05:18:31;;;;;;;8.98;7.55;;;;;;;;;;5113599;28;20019;-75
2022/09/21 05:20:57;;;;;;;10.13;7.72;;;;;;;;;;5113445;28;20463;-75
2022/09/21 05:23:23;;;;;;;11.57;7.78;;;;;;;;;;5095554;28;20328;-74
2022/09/21 05:25:49;;;;;;;8.13;7.28;;;;;;;;;;5113500;28;20379;-74
2022/09/21 05:28:15;;;;;;;11.60;8.52;;;;;;;;;;5113307;28;20076;-75
2022/09/21 05:30:41;;;;;;;10.10;7.32;;;;;;;;;;5078407;28;20031;-75
2022/09/21 05:33:08;;;;;;;9.13;7.60;;;;;;;;;;5113438;28;20016;-75
2022/09/21 05:35:36;;;;;;;8.25;7.32;;;;;;;;;;5112932;28;20061;-75
2022/09/21 05:38:16;;;;;;;11.32;7.70;;;;;;;;;;5094400;28;20390;-75
2022/09/21 05:40:42;;;;;;;9.35;7.75;;;;;;;;;;5113020;28;20023;-75
2022/09/21 05:43:08;;;;;;;10.65;8.00;;;;;;;;;;5112693;28;20516;-75
2022/09/21 05:45:33;;;;;;;10.00;7.45;;;;;;;;;;5112388;28;20039;-75
2022/09/21 05:48:14;;;;;;;8.85;7.57;;;;;;;;;;5112708;28;20083;-75
2022/09/21 05:50:39;;;;;;;9.93;8.05;;;;;;;;;;5112761;28;20034;-75
2022/09/21 05:53:10;;;;;;;8.55;7.30;;;;;;;;;;5112922;28;20098;-72
2022/09/21 05:55:36;;;;;;;10.35;7.85;;;;;;;;;;5093913;28;20032;-72
2022/09/21 05:58:24;;;;;;;9.00;7.38;;;;;;;;;;5112495;28;20356;-72
2022/09/21 06:01:08;;;;;;;9.57;7.00;;;;;;;;;;5061892;28;20093;-72
2022/09/21 06:03:35;;;;;;;7.07;6.38;;;;;;;;;;5091088;28;20088;-72
2022/09/21 06:06:00;;;;;;;9.90;6.68;;;;;;;;;;5091144;28;20073;-72
2022/09/21 06:08:26;;;;;;;8.43;6.28;;;;;;;;;;5072846;28;20468;-72
2022/09/21 06:10:51;;;;;;;6.72;6.07;;;;;;;;;;5091082;28;20027;-72
2022/09/21 06:13:17;;;;;;;7.13;6.40;;;;;;;;;;5072511;28;20028;-72
2022/09/21 06:15:42;;;;;;;7.53;6.38;;;;;;;;;;5090845;28;20083;-72
2022/09/21 06:18:08;;;;;;;7.43;6.35;;;;;;;;;;5090925;28;20388;-72
2022/09/21 06:20:34;;;;;;;7.50;6.10;;;;;;;;;;5092610;28;20020;-72
2022/09/21 06:23:00;;;;;;;8.80;7.15;;;;;;;;;;5094322;28;20463;-73
2022/09/21 06:25:26;;;;;;;9.52;7.35;;;;;;;;;;5094256;28;20102;-73
2022/09/21 06:27:51;;;;;;;8.70;6.88;;;;;;;;;;5076256;28;20078;-73
2022/09/21 06:30:16;;;;;;;10.73;6.95;;;;;;;;;;5076079;28;20344;-73
2022/09/21 06:32:42;;;;;;;9.98;7.55;;;;;;;;;;5094146;28;20028;-72
2022/09/21 06:35:07;;;;;;;7.85;6.53;;;;;;;;;;5094640;28;20482;-72
2022/09/21 06:37:33;;;;;;;8.65;6.80;;;;;;;;;;5077234;28;20024;-72
2022/09/21 06:39:58;;;;;;;11.02;6.72;;;;;;;;;;5095139;28;20099;-72
2022/09/21 06:42:23;;;;;;;7.03;6.32;;;;;;;;;;5095782;28;20038;-75
2022/09/21 06:44:49;;;;;;;8.57;7.32;;;;;;;;;;5094645;28;20095;-75
2022/09/21 06:47:15;;;;;;;7.60;6.65;;;;;;;;;;5094918;28;20024;-75
2022/09/21 06:49:40;;;;;;;19.75;7.45;;;;;;;;;;5095010;28;20119;-75
2022/09/21 06:52:06;;;;;;;14.77;7.63;;;;;;;;;;5095132;28;20036;-75
2022/09/21 06:54:31;;;;;;;16.30;7.22;;;;;;;;;;5094992;28;20507;-76
2022/09/21 06:56:56;;;;;;;16.60;11.20;;;;;;;;;;5095000;28;20040;-75
2022/09/21 06:59:22;;;;;;;8.75;7.32;;;;;;;;;;5061081;28;1176924;-75
2022/09/21 07:01:47;;;;;;;10.57;7.30;;;;;;;;;;5116322;28;20032;-76
2022/09/21 07:04:12;;;;;;;8.25;6.78;;;;;;;;;;5116526;28;20031;-76
2022/09/21 07:06:38;;;;;;;10.50;7.90;;;;;;;;;;5098048;28;20034;-75
2022/09/21 07:09:03;;;;;;;9.05;6.97;;;;;;;;;;5098001;28;20023;-75
2022/09/21 07:11:29;;;;;;;7.60;6.28;;;;;;;;;;5116138;28;20360;-75
2022/09/21 07:13:55;;;;;;;6.65;5.72;;;;;;;;;;5116220;28;20058;-75
2022/09/21 07:16:20;;;;;;;6.45;5.80;;;;;;;;;;5097706;28;20395;-75
2022/09/21 07:18:46;;;;;;;8.75;6.55;;;;;;;;;;5116143;28;20023;-75
2022/09/21 07:21:11;;;;;;;9.50;6.25;;;;;;;;;;5115977;28;20032;-75
2022/09/21 07:23:37;;;;;;;6.15;5.35;;;;;;;;;;5115972;28;20099;-75
2022/09/21 07:26:04;;;;;;;7.88;6.03;;;;;;;;;;5097126;28;20429;-75
2022/09/21 07:28:29;;;;;;;5.78;5.18;;;;;;;;;;5115930;28;20028;-75
2022/09/21 07:30:56;;;;;;;6.22;5.25;;;;;;;;;;5115493;28;20034;-76
2022/09/21 07:33:22;;;;;;;7.45;5.50;;;;;;;;;;5097696;28;20091;-76
2022/09/21 07:35:52;;;;;;;6.18;5.20;;;;;;;;;;5117992;28;20455;-76
2022/09/21 07:38:18;;;;;;;5.80;5.20;;;;;;;;;;5120375;28;20034;-75
2022/09/21 07:40:43;;;;;;;4.80;4.40;;;;;;;;;;5084264;28;20024;-75
2022/09/21 07:43:08;;;;;;;4.07;3.70;;;;;;;;;;5117176;28;20031;-75
2022/09/21 07:45:34;;;;;;;5.00;4.60;;;;;;;;;;5098750;28;20023;-75
2022/09/21 07:48:02;;;;;;;4.28;3.83;;;;;;;;;;5116161;28;20036;-75
2022/09/21 07:50:28;;;;;;;4.90;3.97;;;;;;;;;;5115636;28;20474;-75
2022/09/21 07:52:53;;;;;;;3.63;3.33;;;;;;;;;;5113108;28;20027;-75
2022/09/21 07:55:18;;;;;;;4.57;3.63;;;;;;;;;;5095119;28;20379;-75
2022/09/21 08:00:31;;;;;;;3.80;3.50;;;;;;;;;;5095600;28;20114;-74
2022/09/21 08:02:57;;;;;;;3.00;2.80;;;;;;;;;;5113028;28;20487;-75
2022/09/21 08:05:22;;;;;;;7.70;5.85;;;;;;;;;;5113189;28;20031;-75
2022/09/21 08:07:47;;;;;;;6.90;5.85;;;;;;;;;;5078222;28;20051;-75
2022/09/21 08:10:13;;;;;;;3.10;2.63;;;;;;;;;;5112688;28;20027;-75
2022/09/21 08:12:38;;;;;;;2.85;2.65;;;;;;;;;;5094473;28;20028;-75
2022/09/21 08:15:04;;;;;;;2.67;2.47;;;;;;;;;;5113163;28;20023;-75
2022/09/21 08:17:30;;;;;;;2.00;1.90;;;;;;;;;;5095094;28;20047;-75
2022/09/21 08:19:55;;;;;;;2.25;2.15;;;;;;;;;;5094654;28;20498;-72
2022/09/21 08:22:23;;;;;;;1.88;1.77;;;;;;;;;;5112241;28;20020;-72
2022/09/21 08:24:48;;;;;;;2.33;2.20;;;;;;;;;;5095112;28;20024;-72
2022/09/21 08:27:14;;;;;;;3.13;2.45;;;;;;;;;;5094693;28;20072;-72
2022/09/21 08:29:40;;;;;;;6.53;4.07;;;;;;;;;;5112927;28;20472;-72
2022/09/21 08:32:05;;;;;;;4.93;2.97;;;;;;;;;;5113607;28;20022;-72
2022/09/21 08:34:30;;;;;;;1.95;1.85;;;;;;;;;;5112185;28;20020;-72
2022/09/21 08:36:56;;;;;;;1.67;1.58;;;;;;;;;;5094398;28;20527;-72
2022/09/21 08:39:22;;;;;;;31.88;12.70;;;;;;;;;;5094464;28;20076;-72
2022/09/21 08:42:03;;;;;;;64.60;29.73;;;;;;;;;;5112835;28;20043;-72
2022/09/21 08:44:32;;;;;;;3.35;3.00;;;;;;;;;;5112235;28;20024;-72
2022/09/21 08:47:02;;;;;;;7.80;6.13;;;;;;;;;;5094251;28;20020;-72
2022/09/21 08:49:28;;;;;;;19.30;12.07;;;;;;;;;;5112804;28;20031;-72
2022/09/21 08:51:56;;;;;;;3.40;3.10;;;;;;;;;;5113078;28;20019;-72
2022/09/21 08:54:26;;;;;;;2.70;2.50;;;;;;;;;;5112674;28;20534;-72
2022/09/21 08:56:52;;;;;;;3.47;3.10;;;;;;;;;;5112920;28;20521;-72
2022/09/21 08:59:18;;;;;;;3.13;2.92;;;;;;;;;;5112704;28;20833;-72
2022/09/21 09:01:46;;;;;;;3.10;2.90;;;;;;;;;;5094402;28;20102;-71
2022/09/21 09:04:30;;;;;;;3.40;3.13;;;;;;;;;;5094895;28;20463;-72
2022/09/21 09:07:03;;;;;;;2.85;2.65;;;;;;;;;;5096026;28;20032;-79
2022/09/21 09:09:31;;;;;;;2.60;2.40;;;;;;;;;;5114311;28;20042;-75
2022/09/21 09:12:08;;;;;;;3.45;3.15;;;;;;;;;;5078047;28;20020;-75
2022/09/21 09:14:34;;;;;;;2.35;2.20;;;;;;;;;;5093731;28;20023;-75
2022/09/21 09:16:59;;;;;;;2.92;2.05;;;;;;;;;;5093600;28;20419;-75
2022/09/21 09:19:37;;;;;;;2.60;2.40;;;;;;;;;;5112819;28;20033;-75
2022/09/21 09:22:05;;;;;;;3.60;3.22;;;;;;;;;;5113508;28;20436;-75
2022/09/21 09:24:45;;;;;;;3.22;3.03;;;;;;;;;;5113641;28;20016;-75
2022/09/21 09:27:18;;;;;;;3.10;2.90;;;;;;;;;;5113576;28;20081;-75
2022/09/21 09:29:56;;;;;;;2.80;2.60;;;;;;;;;;5113878;28;20107;-75
2022/09/21 09:32:26;;;;;;;3.22;2.80;;;;;;;;;;5113970;28;20031;-75
2022/09/21 09:34:56;;;;;;;2.85;2.65;;;;;;;;;;5095709;28;20032;-75
2022/09/21 09:37:29;;;;;;;3.13;2.75;;;;;;;;;;5096782;22;20070;-73
2022/09/21 09:39:56;;;;;;;5.13;4.72;;;;;;;;;;5031296;28;20072;-72
2022/09/21 09:42:21;;;;;;;4.18;3.80;;;;;;;;;;5014948;28;20036;-72
2022/09/21 09:45:05;;;;;;;4.60;4.20;;;;;;;;;;5015770;28;20025;-72
2022/09/21 09:47:40;;;;;;;4.50;4.10;;;;;;;;;;5015687;28;20120;-71
2022/09/21 09:50:09;;;;;;;4.07;3.60;;;;;;;;;;5048837;28;20416;-71
2022/09/21 09:52:34;;;;;;;4.32;3.95;;;;;;;;;;5033422;28;20018;-71
2022/09/21 09:55:20;;;;;;;4.38;3.97;;;;;;;;;;5035957;28;20034;-71
2022/09/21 09:57:47;;;;;;;5.65;3.92;;;;;;;;;;5001848;28;20045;-71
2022/09/21 10:00:13;;;;;;;4.63;4.22;;;;;;;;;;5018739;28;20048;-66
2022/09/21 10:02:59;;;;;;;4.38;4.03;;;;;;;;;;5035947;28;20493;-72
2022/09/21 10:05:30;;;;;;;5.70;5.20;;;;;;;;;;5035966;28;20057;-71
2022/09/21 10:07:56;;;;;;;4.43;4.07;;;;;;;;;;5036545;28;20078;-73
2022/09/21 10:10:27;;;;;;;5.38;4.82;;;;;;;;;;5035561;28;20429;-71
2022/09/21 10:12:52;;;;;;;4.45;4.05;;;;;;;;;;5036643;28;20385;-71
2022/09/21 10:15:19;;;;;;;5.07;4.25;;;;;;;;;;5035830;28;20032;-71
2022/09/21 10:17:46;;;;;;;4.82;4.43;;;;;;;;;;5036560;28;20029;-71
2022/09/21 10:20:19;;;;;;;4.07;3.78;;;;;;;;;;5036757;28;20044;-71
2022/09/21 10:22:52;;;;;;;5.35;4.78;;;;;;;;;;5036503;28;20119;-71
2022/09/21 10:25:19;;;;;;;4.63;4.22;;;;;;;;;;5036533;28;20501;-71
2022/09/21 10:27:46;;;;;;;5.32;4.82;;;;;;;;;;5036121;28;20014;-71
2022/09/21 10:30:35;;;;;;;4.70;4.30;;;;;;;;;;5036459;28;20034;-71
2022/09/21 10:33:00;;;;;;;4.97;4.45;;;;;;;;;;5037031;28;20108;-71
2022/09/21 10:35:26;;;;;;;4.90;4.50;;;;;;;;;;5037309;28;20045;-71
2022/09/21 10:38:09;;;;;;;5.45;4.40;;;;;;;;;;5035911;28;20041;-70
2022/09/21 10:40:36;;;;;;;4.57;4.20;;;;;;;;;;5018596;28;20022;-71
2022/09/21 10:43:02;;;;;;;4.50;4.10;;;;;;;;;;5018430;28;20029;-71
2022/09/21 10:45:28;;;;;;;4.80;4.07;;;;;;;;;;5018383;28;20029;-71
2022/09/21 10:47:55;;;;;;;3.95;3.55;;;;;;;;;;5036048;28;20025;-71
2022/09/21 10:50:40;;;;;;;5.20;3.78;;;;;;;;;;5035937;28;20049;-71
2022/09/21 10:53:08;;;;;;;4.45;4.03;;;;;;;;;;5035991;28;20030;-71
2022/09/21 10:55:38;;;;;;;4.53;4.20;;;;;;;;;;5018004;28;20448;-71
2022/09/21 10:58:07;;;;;;;4.53;4.10;;;;;;;;;;5036070;28;20057;-71
2022/09/21 11:00:39;;;;;;;4.97;4.57;;;;;;;;;;5035824;28;20017;-71
2022/09/21 11:03:40;;;;;;;4.93;4.22;;;;;;;;;;5035705;28;20080;-71
2022/09/21 11:06:21;;;;;;;4.60;4.20;;;;;;;;;;4972651;28;20130;-71
2022/09/21 11:08:46;;;;;;;;;;;;;;;;;;5028740;28;20046;-72
2022/09/21 11:11:30;;;;;;;4.33;3.83;;;;;;;;;;5034152;28;19912;-71
2022/09/21 11:14:03;;;;;;;4.60;4.30;;;;;;;;;;5049086;28;20295;-71
2022/09/21 11:16:35;;;;;;;4.47;4.18;;;;;;;;;;5033468;28;20033;-71
2022/09/21 11:19:01;;;;;;;7.28;4.50;;;;;;;;;;5033362;28;20040;-71
2022/09/21 11:21:35;;;;;;;4.70;4.28;;;;;;;;;;5034173;28;20385;-71
2022/09/21 11:24:06;;;;;;;7.25;4.15;;;;;;;;;;5033925;28;20533;-71
2022/09/21 11:26:34;;;;;;;4.38;3.25;;;;;;;;;;5033429;28;20040;-71
2022/09/21 11:29:23;;;;;;;4.93;4.53;;;;;;;;;;5016570;28;20025;-71
2022/09/21 11:31:49;;;;;;;3.75;3.40;;;;;;;;;;5025303;28;20048;-71
2022/09/21 11:34:34;;;;;;;5.85;4.20;;;;;;;;;;5033702;28;20021;-71
2022/09/21 11:37:00;;;;;;;6.65;4.22;;;;;;;;;;5016060;28;20021;-71
2022/09/21 11:39:25;;;;;;;5.72;4.38;;;;;;;;;;5015642;28;20137;-71
2022/09/21 11:42:04;;;;;;;4.68;4.20;;;;;;;;;;5016092;28;20022;-71
2022/09/21 11:44:42;;;;;;;6.45;4.43;;;;;;;;;;5033434;28;20123;-71
2022/09/21 11:47:12;;;;;;;13.73;4.68;;;;;;;;;;5033505;28;20033;-76
2022/09/21 11:49:43;;;;;;;4.15;3.13;;;;;;;;;;5033007;28;20029;-76
2022/09/21 11:52:21;;;;;;;2.28;2.08;;;;;;;;;;5015298;28;20096;-76
2022/09/21 11:54:53;;;;;;;2.65;2.50;;;;;;;;;;5015580;28;20052;-76
2022/09/21 11:57:21;;;;;;;3.47;2.40;;;;;;;;;;5033036;28;20162;-76
2022/09/21 12:00:01;;;;;;;11.50;3.08;;;;;;;;;;5033165;28;20017;-75
2022/09/21 12:02:35;;;;;;;2.90;2.70;;;;;;;;;;5015725;28;20444;-76
2022/09/21 12:05:14;;;;;;;5.30;2.50;;;;;;;;;;5032794;28;20033;-76
2022/09/21 12:07:45;;;;;;;3.58;2.50;;;;;;;;;;5033352;28;20126;-76
2022/09/21 12:10:24;;;;;;;2.70;1.98;;;;;;;;;;5033044;28;20116;-76
2022/09/21 12:12:56;;;;;;;3.50;2.13;;;;;;;;;;5015234;28;20396;-76
2022/09/21 12:15:25;;;;;;;3.88;2.60;;;;;;;;;;5033570;28;20055;-76
2022/09/21 12:18:22;;;;;;;2.80;2.60;;;;;;;;;;5033735;28;20068;-76
2022/09/21 12:21:14;;;;;;;2.85;2.65;;;;;;;;;;5000981;28;20048;-76
2022/09/21 12:23:39;;;;;;;3.13;2.40;;;;;;;;;;5015948;28;20045;-75
2022/09/21 12:26:06;;;;;;;2.47;2.28;;;;;;;;;;5033402;28;20052;-75
2022/09/21 12:28:43;;;;;;;2.03;1.83;;;;;;;;;;5033483;28;20041;-75
2022/09/21 12:31:29;;;;;;;1.60;1.50;;;;;;;;;;5032851;28;20026;-76
2022/09/21 12:33:54;;;;;;;2.58;1.83;;;;;;;;;;5014271;28;20050;-75
2022/09/21 12:36:24;;;;;;;1.80;1.70;;;;;;;;;;5032402;28;20022;-75
2022/09/21 12:38:57;;;;;;;7.68;2.28;;;;;;;;;;5015829;28;20067;-75
2022/09/21 12:41:29;;;;;;;6.97;2.28;;;;;;;;;;5034020;28;20104;-75
2022/09/21 12:44:06;;;;;;;5.75;2.30;;;;;;;;;;5034006;28;20532;-75
2022/09/21 12:47:07;;;;;;;10.13;3.10;;;;;;;;;;5016141;28;20080;-75
2022/09/21 12:49:38;;;;;;;8.13;2.53;;;;;;;;;;5016286;28;20029;-75
2022/09/21 12:52:05;;;;;;;2.55;1.90;;;;;;;;;;5033789;28;20128;-75
2022/09/21 12:54:45;;;;;;;3.28;1.95;;;;;;;;;;5033675;28;20419;-75
2022/09/21 12:57:34;;;;;;;2.60;1.90;;;;;;;;;;5033718;28;20033;-75
2022/09/21 13:00:05;;;;;;;2.08;1.98;;;;;;;;;;5025481;28;20041;-75
2022/09/21 13:02:39;;;;;;;3.67;1.90;;;;;;;;;;5033648;28;20032;-75
2022/09/21 13:05:15;;;;;;;4.10;2.22;;;;;;;;;;5033620;28;20029;-75
2022/09/21 13:07:50;;;;;;;6.22;2.00;;;;;;;;;;5032344;28;20085;-75
2022/09/21 13:10:18;;;;;;;5.32;2.03;;;;;;;;;;5033706;28;20038;-75
2022/09/21 13:12:45;;;;;;;7.68;2.30;;;;;;;;;;5033709;28;20033;-75
2022/09/21 13:15:20;;;;;;;29.15;4.55;;;;;;;;;;5015315;28;20548;-76
2022/09/21 13:17:56;;;;;;;1.55;1.42;;;;;;;;;;5031219;28;20374;-75
2022/09/21 13:20:22;;;;;;;1.70;1.60;;;;;;;;;;5032415;28;20082;-75
2022/09/21 13:22:48;;;;;;;1.63;1.52;;;;;;;;;;5032523;28;20100;-75
2022/09/21 13:25:16;;;;;;;1.33;1.20;;;;;;;;;;5032472;28;20033;-76
2022/09/21 13:28:02;;;;;;;1.55;1.27;;;;;;;;;;5034559;28;20064;-76
2022/09/21 13:31:06;;;;;;;1.40;1.30;;;;;;;;;;5040309;28;20042;-76
2022/09/21 13:33:36;;;;;;;6.10;2.67;;;;;;;;;;5020668;28;20060;-76
2022/09/21 13:36:02;;;;;;;1.55;1.45;;;;;;;;;;5037668;28;20063;-76
2022/09/21 13:38:32;;;;;;;1.90;1.42;;;;;;;;;;5036740;28;20084;-76
2022/09/21 13:40:58;;;;;;;1.67;1.20;;;;;;;;;;5037198;28;20363;-75
2022/09/21 13:43:44;;;;;;;0.95;0.95;;;;;;;;;;5036849;28;20026;-75
2022/09/21 13:46:29;;;;;;;2.33;2.15;;;;;;;;;;5036490;28;20108;-75
2022/09/21 13:48:55;;;;;;;2.30;2.10;;;;;;;;;;5018488;28;20048;-76
2022/09/21 13:51:20;;;;;;;1.38;1.27;;;;;;;;;;5036149;28;20029;-75
2022/09/21 13:53:45;;;;;;;1.75;1.58;;;;;;;;;;5036098;28;20083;-76
2022/09/21 13:56:16;;;;;;;2.45;1.67;;;;;;;;;;5036099;28;20026;-76
2022/09/21 13:58:45;;;;;;;3.10;1.55;;;;;;;;;;5036041;28;20444;-76
2022/09/21 14:01:13;;;;;;;8.27;2.10;;;;;;;;;;5035914;28;20054;-75
2022/09/21 14:03:41;;;;;;;8.02;2.13;;;;;;;;;;5035972;28;20109;-76
2022/09/21 14:06:26;;;;;;;2.53;1.33;;;;;;;;;;5034657;28;20029;-75
2022/09/21 14:09:02;;;;;;;7.55;2.08;;;;;;;;;;5035893;28;20048;-75
2022/09/21 14:11:32;;;;;;;1.63;1.40;;;;;;;;;;5035717;28;20563;-75
2022/09/21 14:14:10;;;;;;;1.10;1.10;;;;;;;;;;5035783;28;20493;-75
2022/09/21 14:16:44;;;;;;;1.98;1.75;;;;;;;;;;5050990;28;20080;-75
2022/09/21 14:19:15;;;;;;;4.85;2.35;;;;;;;;;;5051241;28;20469;-76
2022/09/21 14:22:02;;;;;;;7.53;1.98;;;;;;;;;;5017868;28;20418;-73
2022/09/21 14:24:36;;;;;;;1.60;1.40;;;;;;;;;;5017678;28;20029;-73
2022/09/21 14:27:17;;;;;;;10.25;2.67;;;;;;;;;;5035393;28;20030;-73
2022/09/21 14:29:54;;;;;;;18.83;2.70;;;;;;;;;;5035342;28;20037;-73
2022/09/21 14:32:22;;;;;;;2.08;1.67;;;;;;;;;;5017534;28;20029;-73
2022/09/21 14:34:49;;;;;;;2.40;1.83;;;;;;;;;;5033960;28;20490;-73
2022/09/21 14:37:20;;;;;;;1.50;1.40;;;;;;;;;;5035189;28;20038;-73
2022/09/21 14:39:47;;;;;;;2.72;1.42;;;;;;;;;;5034680;28;20049;-73
2022/09/21 14:42:18;;;;;;;3.15;1.83;;;;;;;;;;5034213;28;20404;-73
2022/09/21 14:44:43;;;;;;;;;;;;;;;;;;5035538;28;20028;-73
2022/09/21 14:47:08;;;;;;;2.23;2.10;;;;;;;;;;5035042;28;19905;-76
2022/09/21 14:49:53;;;;;;;2.20;1.92;;;;;;;;;;5017382;28;20159;-73
2022/09/21 14:52:38;;;;;;;2.03;1.45;;;;;;;;;;5034860;28;20069;-73
2022/09/21 14:55:16;;;;;;;1.80;1.30;;;;;;;;;;5035032;28;20393;-73
2022/09/21 14:57:42;;;;;;;2.85;1.65;;;;;;;;;;5016901;28;20060;-73
2022/09/21 15:00:14;;;;;;;1.45;1.30;;;;;;;;;;5034777;28;20014;-73
2022/09/21 15:02:43;;;;;;;2.20;1.63;;;;;;;;;;5034755;28;20060;-73